createdAt,value
2023-02-05T00:03:51.774Z,101557.63
2023-02-05T00:19:18.208Z,101550.27
2023-02-05T00:34:45.600Z,101551.20
2023-02-05T00:50:11.955Z,101535.16
2023-02-05T01:05:38.227Z,101527.73
2023-02-05T01:21:04.960Z,101515.79
2023-02-05T01:36:31.602Z,101511.02
2023-02-05T01:51:58.476Z,101501.01
2023-02-05T02:07:25.171Z,101507.27
2023-02-05T02:22:39.695Z,101501.95
2023-02-05T02:38:08.463Z,101482.37
2023-02-05T02:53:36.447Z,101487.36
2023-02-05T03:09:03.516Z,101489.09
2023-02-05T03:24:29.366Z,101477.31
2023-02-05T03:39:59.710Z,101481.64
2023-02-05T03:55:28.228Z,101488.52
2023-02-05T04:10:55.362Z,101494.84
2023-02-05T04:26:21.764Z,101494.59
2023-02-05T04:41:57.472Z,101511.69
2023-02-05T04:57:24.632Z,101516.23
2023-02-05T05:12:50.559Z,101523.06
2023-02-05T05:28:17.071Z,101540.98
2023-02-05T05:43:50.479Z,101550.67
2023-02-05T05:59:16.652Z,101568.05
2023-02-05T06:14:43.283Z,101561.88
2023-02-05T06:30:10.088Z,101556.66
2023-02-05T06:45:38.054Z,101578.00
2023-02-05T07:01:05.788Z,101586.41
2023-02-05T07:16:32.884Z,101595.58
2023-02-05T07:31:59.948Z,101603.70
2023-02-05T07:47:26.822Z,101591.98
2023-02-05T08:02:36.730Z,101600.97
2023-02-05T08:18:02.983Z,101611.31
2023-02-05T08:33:30.365Z,101607.45
2023-02-05T08:48:59.572Z,101604.66
2023-02-05T09:04:31.495Z,101601.83
2023-02-05T09:19:57.855Z,101602.42
2023-02-05T09:35:25.802Z,101588.60
2023-02-05T09:50:40.250Z,101566.41
2023-02-05T10:06:13.929Z,101549.93
2023-02-05T10:21:43.918Z,101534.27
2023-02-05T10:37:12.484Z,101520.16
2023-02-05T10:52:38.620Z,101527.95
2023-02-05T11:08:05.517Z,101507.04
2023-02-05T11:23:33.938Z,101500.36
2023-02-05T11:39:01.240Z,101493.98
2023-02-05T11:54:30.794Z,101492.73
2023-02-05T12:09:43.408Z,101497.47
2023-02-05T13:00:07.404Z,101475.80
2023-02-05T13:15:35.332Z,101470.81
2023-02-05T13:31:03.105Z,101470.46
2023-02-05T13:46:40.323Z,101473.76
2023-02-05T14:02:06.579Z,101466.90
2023-02-05T14:17:58.823Z,101459.33
2023-02-05T14:33:32.506Z,101468.66
2023-02-05T14:49:01.103Z,101495.77
2023-02-05T15:04:28.571Z,101486.36
2023-02-05T15:19:55.624Z,101485.23
2023-02-05T15:35:22.505Z,101502.50
2023-02-05T15:50:59.083Z,101514.34
2023-02-05T16:06:17.589Z,101512.20
2023-02-05T16:21:45.056Z,101533.30
2023-02-05T16:37:14.668Z,101538.30
2023-02-05T16:52:42.114Z,101553.52
2023-02-05T17:08:08.760Z,101556.29
2023-02-05T17:23:35.378Z,101541.05
2023-02-05T17:39:01.553Z,101550.66
2023-02-05T17:54:28.342Z,101569.42
2023-02-05T18:09:55.321Z,101554.52
2023-02-05T18:25:04.624Z,101538.13
2023-02-05T18:40:15.966Z,101525.94
2023-02-05T18:55:25.224Z,101557.92
2023-02-05T19:10:34.814Z,101588.63
2023-02-05T19:25:44.098Z,101598.10
2023-02-05T19:40:53.155Z,101594.70
2023-02-05T19:56:07.538Z,101608.96
2023-02-05T20:11:16.449Z,101632.98
2023-02-05T20:26:26.174Z,101638.27
2023-02-05T20:41:35.820Z,101634.15
2023-02-05T20:56:46.528Z,101633.31
2023-02-05T21:11:57.471Z,101634.80
2023-02-05T21:27:08.035Z,101640.36
2023-02-05T21:42:16.935Z,101654.96
2023-02-05T21:57:26.138Z,101688.00
2023-02-05T22:12:36.135Z,101694.11
2023-02-05T22:27:45.770Z,101710.42
2023-02-05T22:42:54.672Z,101698.47
2023-02-05T22:58:03.520Z,101708.09
2023-02-05T23:13:12.999Z,101695.90
2023-02-05T23:28:22.969Z,101675.23
2023-02-05T23:43:32.628Z,101672.10
2023-02-05T23:58:41.736Z,101678.52
